Tug "trevor" — WCP6921 — position and weather

sailwx.info

Track history (hours):
 
Tides and Currents Weather Stations Pressure Air Temp Water Temp Dewpoint Dewpoint Depression Visibility Wind Speed Wind Dir Waves Ship Positions

Tug "trevor"

Owner: WEEKS MARINE, INC., CRANFORD, NJ. More information available from US FCC via Universal Licensing System and Coast Guard Vessel Documentation Center.

Last reported at 2017-Apr-29 13:17 UTC. Time now 2017-Apr-29 17:39 UTC.
Position N 38°48' W 075°06'.

Length 21 m; draft 3 m.

Type: Towing. MMSI: 366643140.

Date/timePositionNaut miles runAvg speedWind from/ knotsBaromVisibWave heightAir tempDewpointWater temp
2017-Apr-29 13:17N 38°48' W 075°06'1 1.7
2017-Apr-29 12:26N 38°47' W 075°07'0 0.0
2017-Apr-29 12:00N 38°47' W 075°07'0 0.0
2017-Apr-29 11:30N 38°47' W 075°07'0 0.0
2017-Apr-29 10:59N 38°47' W 075°07'1 0.0
2017-Apr-28 02:23N 38°48' W 075°06'0 0.0
2017-Apr-28 02:00N 38°48' W 075°06'0 0.0
2017-Apr-28 01:28N 38°48' W 075°06'1 0.1
2017-Apr-27 14:22N 38°47' W 075°07'1 0.5
2017-Apr-27 11:50N 38°48' W 075°06'0 0.0
2017-Apr-27 09:11N 38°48' W 075°06'0 0.0
2017-Apr-27 05:57N 38°48' W 075°06'0 0.0
2017-Apr-27 04:41N 38°48' W 075°06'  
2017-Apr-24 20:46N 38°47' W 075°07'0 0.0
2017-Apr-24 18:05N 38°47' W 075°07'0 0.0
2017-Apr-24 17:59N 38°47' W 075°07'0 0.0
2017-Apr-24 17:26N 38°47' W 075°07'1 2.5
2017-Apr-24 16:57N 38°48' W 075°06'0 0.4
2017-Apr-24 16:29N 38°48' W 075°06'0 0.1
2017-Apr-24 16:00N 38°48' W 075°06'0 0.0
2017-Apr-24 15:29N 38°48' W 075°06'0 0.0
2017-Apr-24 15:00N 38°48' W 075°06'0 0.0
2017-Apr-24 14:30N 38°48' W 075°06'0 0.0
2017-Apr-24 13:29N 38°48' W 075°06'0 0.0
2017-Apr-24 13:00N 38°48' W 075°06'0 0.0
2017-Apr-24 12:30N 38°48' W 075°06'0 0.0
2017-Apr-24 12:00N 38°48' W 075°06'0 0.0
2017-Apr-24 11:30N 38°48' W 075°06'0 0.0
2017-Apr-24 10:54N 38°48' W 075°06'0 0.0
2017-Apr-24 10:30N 38°48' W 075°06'0 0.0
2017-Apr-24 10:00N 38°48' W 075°06'0 0.0
2017-Apr-24 09:30N 38°48' W 075°06'1 2.4
2017-Apr-24 09:00N 38°47' W 075°07'0 0.0
2017-Apr-24 08:30N 38°47' W 075°07'1 1.0
2017-Apr-24 07:42N 38°47' W 075°06'1 4.1
2017-Apr-24 07:30N 38°47' W 075°07'0 0.1
2017-Apr-24 07:00N 38°47' W 075°07'0 0.0
2017-Apr-24 06:30N 38°47' W 075°07'0 0.0
2017-Apr-24 05:57N 38°47' W 075°07'0 0.0
2017-Apr-24 05:25N 38°47' W 075°07'0 0.0
2017-Apr-24 04:49N 38°47' W 075°07'0 0.0
2017-Apr-24 04:26N 38°47' W 075°07'0 0.0
2017-Apr-24 03:22N 38°47' W 075°07'0 0.0
2017-Apr-24 02:56N 38°47' W 075°07'0 0.0
2017-Apr-24 02:30N 38°47' W 075°07'0 0.0
2017-Apr-24 02:00N 38°47' W 075°07'0 0.0
2017-Apr-24 01:10N 38°47' W 075°07'0 0.0
2017-Apr-24 00:47N 38°47' W 075°07'0 0.0
2017-Apr-23 23:36N 38°47' W 075°07'0 0.3
2017-Apr-23 23:16N 38°47' W 075°07'  
2017-Apr-20 09:25N 34°27' W 076°29'2 4.9
2017-Apr-20 09:00N 34°29' W 076°31'2 4.6
2017-Apr-20 08:31N 34°31' W 076°32'2 4.4
2017-Apr-20 08:00N 34°32' W 076°33'2 4.3
2017-Apr-20 07:30N 34°34' W 076°35'2 4.2
2017-Apr-20 07:00N 34°36' W 076°37'2 4.9
2017-Apr-20 06:30N 34°38' W 076°38'2 4.0
2017-Apr-20 06:01N 34°39' W 076°40'1 2.8
2017-Apr-20 05:30N 34°41' W 076°40'1 2.5
2017-Apr-20 05:00N 34°42' W 076°40'1 2.0
2017-Apr-20 04:30N 34°42' W 076°41'0 0.5
2017-Apr-20 04:00N 34°42' W 076°42'2 4.3
2017-Apr-20 03:30N 34°41' W 076°40'2 3.1
2017-Apr-20 03:01N 34°42' W 076°41'1 1.6
2017-Apr-20 02:31N 34°42' W 076°42'0 0.0
2017-Apr-20 02:00N 34°42' W 076°42'0 0.0
2017-Apr-20 01:30N 34°42' W 076°42'0 0.0
2017-Apr-20 01:00N 34°42' W 076°42'0 0.0
2017-Apr-20 00:30N 34°42' W 076°42'0 0.0
2017-Apr-20 00:00N 34°42' W 076°42'0 0.0
2017-Apr-19 23:30N 34°42' W 076°42'0 0.0
2017-Apr-19 23:00N 34°42' W 076°42'0 0.0
2017-Apr-19 22:30N 34°42' W 076°42'0 0.0
2017-Apr-19 22:00N 34°42' W 076°42'0 0.0
2017-Apr-19 21:30N 34°42' W 076°42'0 0.0
2017-Apr-19 21:00N 34°42' W 076°42'0 0.0
2017-Apr-19 20:31N 34°42' W 076°42'0 0.0
2017-Apr-19 20:01N 34°42' W 076°42'0 0.0
2017-Apr-19 19:30N 34°42' W 076°42'0 0.0
2017-Apr-19 19:00N 34°42' W 076°42'0 0.0
2017-Apr-19 18:31N 34°42' W 076°42'0 0.0
2017-Apr-19 18:00N 34°42' W 076°42'0 0.0
2017-Apr-19 17:31N 34°42' W 076°42'0 0.0
2017-Apr-19 17:00N 34°42' W 076°42'0 0.0
2017-Apr-19 16:30N 34°42' W 076°42'0 0.0
2017-Apr-19 16:00N 34°42' W 076°42'0 0.0
2017-Apr-19 15:30N 34°42' W 076°42'0 0.0
2017-Apr-19 15:01N 34°42' W 076°42'0 0.0
2017-Apr-19 14:30N 34°42' W 076°42'0 0.0
2017-Apr-19 13:31N 34°42' W 076°42'  
Track history (hours):
 
Tides and Currents Weather Stations Pressure Air Temp Water Temp Dewpoint Dewpoint Depression Visibility Wind Speed Wind Dir Waves Ship Positions

Tug "trevor"

Owner: WEEKS MARINE, INC., CRANFORD, NJ. More information available from US FCC via Universal Licensing System and Coast Guard Vessel Documentation Center.

Last reported at 2017-Apr-29 13:17 UTC. Time now 2017-Apr-29 17:39 UTC.
Position N 38°48' W 075°06'.

Length 21 m; draft 3 m.

Type: Towing. MMSI: 366643140.

Date/timePositionNaut miles runAvg speedWind from/ knotsBaromVisibWave heightAir tempDewpointWater temp
2017-Apr-29 13:17N 38°48' W 075°06'1 1.7
2017-Apr-29 12:26N 38°47' W 075°07'0 0.0
2017-Apr-29 12:00N 38°47' W 075°07'0 0.0
2017-Apr-29 11:30N 38°47' W 075°07'0 0.0
2017-Apr-29 10:59N 38°47' W 075°07'1 0.0
2017-Apr-28 02:23N 38°48' W 075°06'0 0.0
2017-Apr-28 02:00N 38°48' W 075°06'0 0.0
2017-Apr-28 01:28N 38°48' W 075°06'1 0.1
2017-Apr-27 14:22N 38°47' W 075°07'1 0.5
2017-Apr-27 11:50N 38°48' W 075°06'0 0.0
2017-Apr-27 09:11N 38°48' W 075°06'0 0.0
2017-Apr-27 05:57N 38°48' W 075°06'0 0.0
2017-Apr-27 04:41N 38°48' W 075°06'  
2017-Apr-24 20:46N 38°47' W 075°07'0 0.0
2017-Apr-24 18:05N 38°47' W 075°07'0 0.0
2017-Apr-24 17:59N 38°47' W 075°07'0 0.0
2017-Apr-24 17:26N 38°47' W 075°07'1 2.5
2017-Apr-24 16:57N 38°48' W 075°06'0 0.4
2017-Apr-24 16:29N 38°48' W 075°06'0 0.1
2017-Apr-24 16:00N 38°48' W 075°06'0 0.0
2017-Apr-24 15:29N 38°48' W 075°06'0 0.0
2017-Apr-24 15:00N 38°48' W 075°06'0 0.0
2017-Apr-24 14:30N 38°48' W 075°06'0 0.0
2017-Apr-24 13:29N 38°48' W 075°06'0 0.0
2017-Apr-24 13:00N 38°48' W 075°06'0 0.0
2017-Apr-24 12:30N 38°48' W 075°06'0 0.0
2017-Apr-24 12:00N 38°48' W 075°06'0 0.0
2017-Apr-24 11:30N 38°48' W 075°06'0 0.0
2017-Apr-24 10:54N 38°48' W 075°06'0 0.0
2017-Apr-24 10:30N 38°48' W 075°06'0 0.0
2017-Apr-24 10:00N 38°48' W 075°06'0 0.0
2017-Apr-24 09:30N 38°48' W 075°06'1 2.4
2017-Apr-24 09:00N 38°47' W 075°07'0 0.0
2017-Apr-24 08:30N 38°47' W 075°07'1 1.0
2017-Apr-24 07:42N 38°47' W 075°06'1 4.1
2017-Apr-24 07:30N 38°47' W 075°07'0 0.1
2017-Apr-24 07:00N 38°47' W 075°07'0 0.0
2017-Apr-24 06:30N 38°47' W 075°07'0 0.0
2017-Apr-24 05:57N 38°47' W 075°07'0 0.0
2017-Apr-24 05:25N 38°47' W 075°07'0 0.0
2017-Apr-24 04:49N 38°47' W 075°07'0 0.0
2017-Apr-24 04:26N 38°47' W 075°07'0 0.0
2017-Apr-24 03:22N 38°47' W 075°07'0 0.0
2017-Apr-24 02:56N 38°47' W 075°07'0 0.0
2017-Apr-24 02:30N 38°47' W 075°07'0 0.0
2017-Apr-24 02:00N 38°47' W 075°07'0 0.0
2017-Apr-24 01:10N 38°47' W 075°07'0 0.0
2017-Apr-24 00:47N 38°47' W 075°07'0 0.0
2017-Apr-23 23:36N 38°47' W 075°07'0 0.3
2017-Apr-23 23:16N 38°47' W 075°07'  
2017-Apr-20 09:25N 34°27' W 076°29'2 4.9
2017-Apr-20 09:00N 34°29' W 076°31'2 4.6
2017-Apr-20 08:31N 34°31' W 076°32'2 4.4
2017-Apr-20 08:00N 34°32' W 076°33'2 4.3
2017-Apr-20 07:30N 34°34' W 076°35'2 4.2
2017-Apr-20 07:00N 34°36' W 076°37'2 4.9
2017-Apr-20 06:30N 34°38' W 076°38'2 4.0
2017-Apr-20 06:01N 34°39' W 076°40'1 2.8
2017-Apr-20 05:30N 34°41' W 076°40'1 2.5
2017-Apr-20 05:00N 34°42' W 076°40'1 2.0
2017-Apr-20 04:30N 34°42' W 076°41'0 0.5
2017-Apr-20 04:00N 34°42' W 076°42'2 4.3
2017-Apr-20 03:30N 34°41' W 076°40'2 3.1
2017-Apr-20 03:01N 34°42' W 076°41'1 1.6
2017-Apr-20 02:31N 34°42' W 076°42'0 0.0
2017-Apr-20 02:00N 34°42' W 076°42'0 0.0
2017-Apr-20 01:30N 34°42' W 076°42'0 0.0
2017-Apr-20 01:00N 34°42' W 076°42'0 0.0
2017-Apr-20 00:30N 34°42' W 076°42'0 0.0
2017-Apr-20 00:00N 34°42' W 076°42'0 0.0
2017-Apr-19 23:30N 34°42' W 076°42'0 0.0
2017-Apr-19 23:00N 34°42' W 076°42'0 0.0
2017-Apr-19 22:30N 34°42' W 076°42'0 0.0
2017-Apr-19 22:00N 34°42' W 076°42'0 0.0
2017-Apr-19 21:30N 34°42' W 076°42'0 0.0
2017-Apr-19 21:00N 34°42' W 076°42'0 0.0
2017-Apr-19 20:31N 34°42' W 076°42'0 0.0
2017-Apr-19 20:01N 34°42' W 076°42'0 0.0
2017-Apr-19 19:30N 34°42' W 076°42'0 0.0
2017-Apr-19 19:00N 34°42' W 076°42'0 0.0
2017-Apr-19 18:31N 34°42' W 076°42'0 0.0
2017-Apr-19 18:00N 34°42' W 076°42'0 0.0
2017-Apr-19 17:31N 34°42' W 076°42'0 0.0
2017-Apr-19 17:00N 34°42' W 076°42'0 0.0
2017-Apr-19 16:30N 34°42' W 076°42'0 0.0
2017-Apr-19 16:00N 34°42' W 076°42'0 0.0
2017-Apr-19 15:30N 34°42' W 076°42'0 0.0
2017-Apr-19 15:01N 34°42' W 076°42'0 0.0
2017-Apr-19 14:30N 34°42' W 076°42'0 0.0
2017-Apr-19 13:31N 34°42' W 076°42'  

Dump ship's entire track history